Terminal Aerodrome Forecast
Issued by NWS

Home | Current Version | Previous Version | Text Only | Print | Product List | Glossary On
Versions: 1 2 3 4 5 6 7 8 9 10 11 12 13 14 15 16 17
847
FTUS44 KLZK 261739
TAFHRO
TAF
KHRO 261739Z 2618/2718 13005KT P6SM VCTS SCT025 SCT035CB
      TEMPO 2619/2623 -TSRA BKN025CB OVC035
     FM270100 11005KT P6SM FEW030 SCT100 BKN250
     FM271000 12003KT P6SM SCT040 BKN250=

USA.gov is the U.S. government's official web portal to all federal, state and local government web resources and services.